createdAt,value
2023-05-21T00:00:17.390Z,12.50
2023-05-21T00:05:24.875Z,12.40
2023-05-21T00:10:32.009Z,12.50
2023-05-21T00:15:40.348Z,12.40
2023-05-21T00:20:47.858Z,12.40
2023-05-21T00:25:55.486Z,12.40
2023-05-21T00:31:03.042Z,12.50
2023-05-21T00:36:10.950Z,12.40
2023-05-21T00:41:19.469Z,12.40
2023-05-21T00:46:28.189Z,12.50
2023-05-21T00:51:35.411Z,12.50
2023-05-21T00:56:42.755Z,12.50
2023-05-21T01:01:51.711Z,12.40
2023-05-21T01:06:59.090Z,12.40
2023-05-21T01:12:07.028Z,12.50
2023-05-21T01:17:16.038Z,12.60
2023-05-21T01:22:25.567Z,12.60
2023-05-21T01:27:32.534Z,12.60
2023-05-21T01:32:58.598Z,12.60
2023-05-21T01:38:24.649Z,12.60
2023-05-21T01:43:36.937Z,12.70
2023-05-21T01:48:46.159Z,12.60
2023-05-21T01:53:53.629Z,12.50
2023-05-21T01:59:02.220Z,12.50
2023-05-21T02:04:09.370Z,12.50
2023-05-21T02:09:16.667Z,12.50
2023-05-21T02:14:25.182Z,12.60
2023-05-21T02:19:32.283Z,12.70
2023-05-21T02:24:39.252Z,12.70
2023-05-21T02:29:46.377Z,12.70
2023-05-21T02:34:53.648Z,12.60
2023-05-21T02:40:00.627Z,12.60
2023-05-21T02:45:11.941Z,12.60
2023-05-21T02:50:19.100Z,12.60
2023-05-21T02:55:25.948Z,12.60
2023-05-21T03:00:47.800Z,12.70
2023-05-21T03:05:55.016Z,12.70
2023-05-21T03:11:02.020Z,12.70
2023-05-21T03:16:09.288Z,12.70
2023-05-21T03:21:18.331Z,12.60
2023-05-21T03:26:25.970Z,12.60
2023-05-21T03:31:33.241Z,12.60
2023-05-21T03:36:40.488Z,12.60
2023-05-21T03:41:47.518Z,12.60
2023-05-21T03:46:54.345Z,12.60
2023-05-21T03:52:01.562Z,12.60
2023-05-21T03:57:08.673Z,12.60
2023-05-21T04:02:15.664Z,12.60
2023-05-21T04:07:23.019Z,12.50
2023-05-21T04:12:29.887Z,12.60
2023-05-21T04:17:36.757Z,12.60
2023-05-21T04:22:44.387Z,12.60
2023-05-21T04:27:51.928Z,12.60
2023-05-21T04:33:00.744Z,12.60
2023-05-21T04:38:09.097Z,12.60
2023-05-21T04:43:17.507Z,12.70
2023-05-21T04:48:29.233Z,12.80
2023-05-21T04:53:36.335Z,12.80
2023-05-21T04:58:43.478Z,13.00
2023-05-21T05:03:50.557Z,13.00
2023-05-21T05:08:57.586Z,13.00
2023-05-21T05:14:08.304Z,13.00
2023-05-21T05:19:15.522Z,13.00
2023-05-21T05:24:22.824Z,13.00
2023-05-21T05:29:29.684Z,13.20
2023-05-21T05:34:36.578Z,13.50
2023-05-21T05:39:43.622Z,13.70
2023-05-21T05:44:50.781Z,13.80
2023-05-21T05:49:57.697Z,13.90
2023-05-21T05:55:06.258Z,13.80
2023-05-21T06:00:14.136Z,13.80
2023-05-21T06:05:21.305Z,14.00
2023-05-21T06:10:28.233Z,14.10
2023-05-21T06:15:35.591Z,14.40
2023-05-21T06:20:42.518Z,14.60
2023-05-21T06:25:49.302Z,14.70
2023-05-21T06:30:56.179Z,14.70
2023-05-21T06:36:03.541Z,14.80
2023-05-21T06:41:11.314Z,15.00
2023-05-21T06:46:18.686Z,15.20
2023-05-21T06:51:25.689Z,15.10
2023-05-21T06:56:32.668Z,15.10
2023-05-21T07:01:41.220Z,15.20
2023-05-21T07:06:49.099Z,15.60
2023-05-21T07:11:56.431Z,15.90
2023-05-21T07:17:03.447Z,15.70
2023-05-21T07:22:10.656Z,15.70
2023-05-21T07:27:25.491Z,15.90
2023-05-21T07:32:27.340Z,15.90
2023-05-21T07:37:34.360Z,16.10
2023-05-21T07:42:42.232Z,15.80
2023-05-21T07:47:49.343Z,15.90
2023-05-21T07:52:56.412Z,16.10
2023-05-21T07:58:03.829Z,16.20
2023-05-21T08:03:12.562Z,16.00
2023-05-21T08:08:22.297Z,16.50
2023-05-21T08:13:29.316Z,17.10
2023-05-21T08:18:36.262Z,17.10
2023-05-21T08:23:43.383Z,17.70
2023-05-21T08:28:50.349Z,17.70
2023-05-21T08:33:57.410Z,17.60
2023-05-21T08:39:04.576Z,17.50
2023-05-21T08:44:14.421Z,17.60
2023-05-21T08:49:26.986Z,17.50
2023-05-21T08:54:32.997Z,17.60
2023-05-21T08:59:41.776Z,17.60
2023-05-21T09:04:50.269Z,17.50
2023-05-21T09:10:04.140Z,17.60
2023-05-21T09:15:11.570Z,18.10
2023-05-21T09:20:19.348Z,18.10
2023-05-21T09:25:29.781Z,18.40
2023-05-21T09:30:36.809Z,18.80
2023-05-21T09:35:49.808Z,18.80
2023-05-21T09:40:58.431Z,18.70
2023-05-21T09:46:05.408Z,18.40
2023-05-21T09:51:18.850Z,18.90
2023-05-21T09:56:30.440Z,18.60
2023-05-21T10:01:38.237Z,17.90
2023-05-21T10:06:50.059Z,18.30
2023-05-21T10:11:58.852Z,18.10
2023-05-21T10:17:07.964Z,17.70
2023-05-21T10:22:17.215Z,17.30
2023-05-21T10:27:24.771Z,17.90
2023-05-21T10:32:33.169Z,19.20
2023-05-21T10:37:41.083Z,19.40
2023-05-21T10:43:12.994Z,19.30
2023-05-21T10:48:49.705Z,19.10
2023-05-21T10:54:15.947Z,18.60
2023-05-21T10:59:47.847Z,18.20
2023-05-21T11:05:05.588Z,18.30
2023-05-21T11:10:44.384Z,18.20
2023-05-21T11:16:08.683Z,17.90
2023-05-21T11:21:21.378Z,18.20
2023-05-21T11:26:47.978Z,18.90
2023-05-21T11:32:06.192Z,18.80
2023-05-21T11:37:26.877Z,18.50
2023-05-21T11:42:41.881Z,19.80
2023-05-21T11:47:50.775Z,20.50
2023-05-21T11:52:58.664Z,21.30
2023-05-21T11:58:06.476Z,21.40
2023-05-21T12:03:16.900Z,20.20
2023-05-21T12:08:27.355Z,19.90
2023-05-21T12:13:34.394Z,19.50
2023-05-21T12:18:41.624Z,19.20
2023-05-21T12:23:48.745Z,18.80
2023-05-21T12:28:57.507Z,19.70
2023-05-21T12:34:04.501Z,20.40
2023-05-21T12:39:12.272Z,20.40
2023-05-21T12:44:20.728Z,20.40
2023-05-21T12:49:38.263Z,20.90
2023-05-21T12:54:49.251Z,21.40
2023-05-21T13:00:00.474Z,21.40
2023-05-21T13:05:10.598Z,22.00
2023-05-21T13:10:18.484Z,22.30
2023-05-21T13:15:26.071Z,21.50
2023-05-21T13:20:33.725Z,21.60
2023-05-21T13:25:40.840Z,21.70
2023-05-21T13:30:48.088Z,22.10
2023-05-21T13:35:55.478Z,21.90
2023-05-21T13:41:02.703Z,22.20
2023-05-21T13:46:09.862Z,22.50
2023-05-21T13:51:30.785Z,22.20
2023-05-21T13:56:26.960Z,21.80
2023-05-21T14:01:34.265Z,22.20
2023-05-21T14:06:41.582Z,22.10
2023-05-21T14:11:48.822Z,22.50
2023-05-21T14:16:56.091Z,22.20
2023-05-21T14:22:03.311Z,22.30
2023-05-21T14:27:10.281Z,22.40
2023-05-21T14:32:18.708Z,22.40
2023-05-21T14:37:25.798Z,21.80
2023-05-21T14:42:32.847Z,21.20
2023-05-21T14:47:40.173Z,21.20
2023-05-21T14:52:47.168Z,20.90
2023-05-21T14:57:54.142Z,21.30
2023-05-21T15:03:01.670Z,21.20
2023-05-21T15:08:10.300Z,21.20
2023-05-21T15:13:17.186Z,21.20
2023-05-21T15:18:25.105Z,21.30
2023-05-21T15:23:32.993Z,21.10
2023-05-21T15:28:39.776Z,21.30
2023-05-21T15:33:46.751Z,21.80
2023-05-21T15:38:54.126Z,21.30
2023-05-21T15:44:01.977Z,20.90
2023-05-21T15:49:09.904Z,20.60
2023-05-21T15:54:17.251Z,21.00
2023-05-21T15:59:26.071Z,21.20
2023-05-21T16:04:34.355Z,21.50
2023-05-21T16:09:41.774Z,21.40
2023-05-21T16:14:53.704Z,21.10
2023-05-21T16:20:01.380Z,21.00
2023-05-21T16:25:09.949Z,20.60
2023-05-21T16:30:16.715Z,20.40
2023-05-21T16:35:23.531Z,20.10
2023-05-21T16:40:32.135Z,19.90
2023-05-21T16:45:47.210Z,19.50
2023-05-21T16:50:54.279Z,19.20
2023-05-21T16:56:01.079Z,19.10
2023-05-21T17:01:08.378Z,18.90
2023-05-21T17:06:15.283Z,18.90
2023-05-21T17:11:22.262Z,18.80
2023-05-21T17:16:29.211Z,18.70
2023-05-21T17:21:36.329Z,18.60
2023-05-21T17:26:43.051Z,18.70
2023-05-21T17:31:49.961Z,18.60
2023-05-21T17:36:58.125Z,18.40
2023-05-21T17:42:05.801Z,18.20
2023-05-21T17:47:13.442Z,18.00
2023-05-21T17:52:20.405Z,18.00
2023-05-21T17:57:27.206Z,17.70
2023-05-21T18:02:35.152Z,17.60
2023-05-21T18:07:42.553Z,17.40
2023-05-21T18:12:49.415Z,17.30
2023-05-21T18:17:56.574Z,17.20
2023-05-21T18:23:04.028Z,17.00
2023-05-21T18:28:12.163Z,16.90
2023-05-21T18:33:19.046Z,16.80
2023-05-21T18:38:26.751Z,16.70
2023-05-21T18:43:33.956Z,16.60
2023-05-21T18:48:40.845Z,16.50
2023-05-21T18:53:47.641Z,16.40
2023-05-21T18:58:55.660Z,16.40
2023-05-21T19:04:02.967Z,16.20
2023-05-21T19:09:10.198Z,16.00
2023-05-21T19:14:17.299Z,15.90
2023-05-21T19:19:24.578Z,15.80
2023-05-21T19:24:31.575Z,15.70
2023-05-21T19:29:38.635Z,15.70
2023-05-21T19:34:47.146Z,15.70
2023-05-21T19:39:54.454Z,15.70
2023-05-21T19:45:01.709Z,15.50
2023-05-21T19:50:10.899Z,15.50
2023-05-21T19:55:19.869Z,15.50
2023-05-21T20:00:26.828Z,15.30
2023-05-21T20:05:33.865Z,15.20
2023-05-21T20:10:41.021Z,15.30
2023-05-21T20:15:48.363Z,15.30
2023-05-21T20:20:55.866Z,15.20
2023-05-21T20:26:02.824Z,15.10
2023-05-21T20:31:09.819Z,15.10
2023-05-21T20:36:18.049Z,15.10
2023-05-21T20:41:25.562Z,15.10
2023-05-21T20:46:34.506Z,15.00
2023-05-21T20:51:44.718Z,14.90
2023-05-21T20:56:53.481Z,14.80
2023-05-21T21:02:00.670Z,14.70
2023-05-21T21:07:08.578Z,14.70
2023-05-21T21:12:26.217Z,14.70
2023-05-21T21:17:24.588Z,14.60
2023-05-21T21:22:31.935Z,14.60
2023-05-21T21:27:39.186Z,14.60
2023-05-21T21:32:48.211Z,14.60
2023-05-21T21:37:55.719Z,14.70
2023-05-21T21:43:02.635Z,14.60
2023-05-21T21:48:10.233Z,14.50
2023-05-21T21:53:17.131Z,14.40
2023-05-21T21:58:24.111Z,14.40
2023-05-21T22:03:34.814Z,14.50
2023-05-21T22:08:41.996Z,14.60
2023-05-21T22:13:49.239Z,14.60
2023-05-21T22:18:57.757Z,14.60
2023-05-21T22:24:04.997Z,14.60
2023-05-21T22:29:12.125Z,14.60
2023-05-21T22:34:19.154Z,14.60
2023-05-21T22:39:26.189Z,14.60
2023-05-21T22:44:33.379Z,14.70
2023-05-21T22:49:40.967Z,14.60
2023-05-21T22:54:48.078Z,14.50
2023-05-21T22:59:55.205Z,14.50
2023-05-21T23:05:02.084Z,14.40
2023-05-21T23:10:10.352Z,14.30
2023-05-21T23:15:17.413Z,14.30
2023-05-21T23:20:25.078Z,14.40
2023-05-21T23:25:32.239Z,14.30
2023-05-21T23:30:40.197Z,14.30
2023-05-21T23:35:47.612Z,14.30
2023-05-21T23:40:55.868Z,14.30
2023-05-21T23:46:03.670Z,14.20
2023-05-21T23:51:10.897Z,14.20
2023-05-21T23:56:17.948Z,14.20
